Time;durP1;ratioP1;P1;durP2;ratioP2;P2;SDS_P1;SDS_P2;PMS_P1;PMS_P2;Temp;Humidity;BMP_temperature;BMP_pressure;BME280_temperature;BME280_humidity;BME280_pressure;Samples;Min_cycle;Max_cycle;Signal;HPM_P1;HPM_P2
2021/01/15 00:00:18;;;;;;;17.67;12.10;;;8.60;60.00;;;;;;5081056;28;20041;-56
2021/01/15 00:02:44;;;;;;;17.80;13.20;;;8.60;59.60;;;;;;5074750;28;20060;-55
2021/01/15 00:05:10;;;;;;;17.03;12.83;;;8.70;59.70;;;;;;5076010;28;20075;-51
2021/01/15 00:07:35;;;;;;;16.67;12.57;;;8.60;59.70;;;;;;5070882;28;20044;-51
2021/01/15 00:10:01;;;;;;;14.77;10.83;;;8.70;60.00;;;;;;5085072;28;20533;-55
2021/01/15 00:12:27;;;;;;;15.77;11.07;;;8.60;58.90;;;;;;5073516;28;20126;-52
2021/01/15 00:14:52;;;;;;;16.30;11.53;;;8.70;58.90;;;;;;5079034;28;20032;-53
2021/01/15 00:17:18;;;;;;;14.30;10.93;;;8.60;58.40;;;;;;5079488;28;20047;-53
2021/01/15 00:19:44;;;;;;;13.27;10.23;;;8.70;57.80;;;;;;5081502;28;20406;-51
2021/01/15 00:22:09;;;;;;;17.00;10.80;;;8.70;58.10;;;;;;5064104;28;20043;-51
2021/01/15 00:24:35;;;;;;;12.60;9.97;;;8.70;58.10;;;;;;5081821;28;20029;-52
2021/01/15 00:27:00;;;;;;;16.60;10.53;;;8.70;58.60;;;;;;5073177;28;20043;-55
2021/01/15 00:29:27;;;;;;;15.37;9.70;;;8.70;59.30;;;;;;5078716;28;20032;-56
2021/01/15 00:31:53;;;;;;;13.47;9.17;;;8.80;58.50;;;;;;5079532;28;21157;-55
2021/01/15 00:34:18;;;;;;;11.97;8.13;;;8.80;58.30;;;;;;5075937;28;20043;-55
2021/01/15 00:36:45;;;;;;;13.97;8.87;;;8.80;57.60;;;;;;5077991;28;20429;-53
2021/01/15 00:39:15;;;;;;;11.83;8.07;;;8.80;57.60;;;;;;5077870;28;20108;-54
2021/01/15 00:41:43;;;;;;;10.87;8.90;;;8.80;55.50;;;;;;5080237;28;20036;-57
2021/01/15 00:44:10;;;;;;;9.10;7.37;;;8.80;57.80;;;;;;5077693;28;20040;-53
2021/01/15 00:46:37;;;;;;;11.67;8.30;;;8.80;55.20;;;;;;5079079;28;20047;-56
2021/01/15 00:49:05;;;;;;;13.57;10.90;;;8.90;55.80;;;;;;5054486;28;20048;-52
2021/01/15 00:51:32;;;;;;;16.37;12.60;;;8.80;57.30;;;;;;5078607;28;22582;-56
2021/01/15 00:53:58;;;;;;;18.77;13.90;;;8.80;57.50;;;;;;5071218;28;20074;-56
2021/01/15 00:56:25;;;;;;;23.63;15.60;;;8.70;57.90;;;;;;5075238;28;20032;-54
2021/01/15 00:58:51;;;;;;;28.03;19.50;;;8.70;58.30;;;;;;5081401;28;20456;-54
2021/01/15 01:01:20;;;;;;;30.53;22.60;;;8.60;59.00;;;;;;5077360;28;20044;-55
2021/01/15 01:03:47;;;;;;;32.60;24.17;;;8.40;60.20;;;;;;5072418;28;20047;-52
2021/01/15 01:06:18;;;;;;;32.90;25.07;;;8.40;61.30;;;;;;5081707;28;20084;-56
2021/01/15 01:08:44;;;;;;;37.40;26.03;;;8.50;62.20;;;;;;5079648;28;20028;-55
2021/01/15 01:11:18;;;;;;;34.33;26.03;;;8.40;63.00;;;;;;5079993;28;20032;-52
2021/01/15 01:13:45;;;;;;;42.17;31.33;;;8.50;62.90;;;;;;5077070;28;20662;-53
2021/01/15 01:16:15;;;;;;;48.57;33.93;;;8.30;65.30;;;;;;5079912;28;20221;-54
2021/01/15 01:18:42;;;;;;;45.67;33.13;;;8.30;65.80;;;;;;5080306;28;20036;-60
2021/01/15 01:21:08;;;;;;;44.60;33.30;;;8.30;66.60;;;;;;5077643;28;20047;-53
2021/01/15 01:23:34;;;;;;;51.53;35.67;;;8.20;67.30;;;;;;5079234;28;20040;-50
2021/01/15 01:25:59;;;;;;;44.93;34.50;;;8.20;67.50;;;;;;5072931;28;20444;-54
2021/01/15 01:28:25;;;;;;;54.40;36.83;;;8.20;67.50;;;;;;5079940;28;20482;-55
2021/01/15 01:30:51;;;;;;;48.77;36.13;;;8.10;67.60;;;;;;5071267;28;20037;-56
2021/01/15 01:33:16;;;;;;;49.97;35.70;;;8.10;67.70;;;;;;5078183;28;20063;-55
2021/01/15 01:35:42;;;;;;;47.73;34.87;;;8.10;67.90;;;;;;5073026;28;20057;-55
2021/01/15 01:38:08;;;;;;;44.20;34.73;;;8.10;68.50;;;;;;5081808;28;20523;-51
2021/01/15 01:40:33;;;;;;;48.23;35.37;;;8.10;68.50;;;;;;5078861;28;20486;-52
2021/01/15 01:43:02;;;;;;;48.43;36.50;;;8.20;68.50;;;;;;5074391;28;20075;-55
2021/01/15 01:45:28;;;;;;;49.63;36.57;;;8.10;68.60;;;;;;5077306;28;20055;-51
2021/01/15 01:47:55;;;;;;;50.53;36.73;;;8.10;69.00;;;;;;5078225;28;20032;-55
2021/01/15 01:50:22;;;;;;;49.97;38.13;;;7.90;69.10;;;;;;5076635;28;20071;-53
2021/01/15 01:52:48;;;;;;;53.73;38.63;;;8.00;69.60;;;;;;5070116;28;20047;-54
2021/01/15 01:55:14;;;;;;;50.20;39.50;;;8.00;69.80;;;;;;5076195;28;20123;-55
2021/01/15 01:57:41;;;;;;;60.20;39.07;;;8.10;69.90;;;;;;5074568;28;20047;-55
2021/01/15 02:00:07;;;;;;;51.90;38.60;;;8.00;70.50;;;;;;5056243;28;20048;-56
2021/01/15 02:02:33;;;;;;;55.10;39.63;;;8.00;70.40;;;;;;5073463;28;20044;-52
2021/01/15 02:04:58;;;;;;;53.47;40.23;;;8.00;71.60;;;;;;5079664;28;20497;-52
2021/01/15 02:07:24;;;;;;;52.50;41.57;;;8.00;72.30;;;;;;5074431;28;20040;-54
2021/01/15 02:10:06;;;;;;;54.47;40.50;;;8.00;72.60;;;;;;5068392;28;20036;-51
2021/01/15 02:12:58;;;;;;;56.17;38.97;;;8.00;73.20;;;;;;5051231;28;20059;-54
2021/01/15 02:15:37;;;;;;;49.77;36.13;;;8.00;72.40;;;;;;5031113;28;20040;-53
2021/01/15 02:18:40;;;;;;;41.83;32.17;;;8.00;73.10;;;;;;5075196;28;20037;-55
2021/01/15 02:21:27;;;;;;;38.70;28.87;;;8.10;71.70;;;;;;5050840;28;20059;-56
2021/01/15 02:24:02;;;;;;;33.80;27.13;;;8.10;70.00;;;;;;5009301;28;20041;-53
2021/01/15 02:26:36;;;;;;;;;;;8.10;70.60;;;;;;5069687;28;20097;-52
2021/01/15 02:29:18;;;;;;;32.70;22.67;;;8.10;68.00;;;;;;5073362;28;19927;-51
2021/01/15 02:31:44;;;;;;;23.50;18.00;;;8.10;69.80;;;;;;5076873;28;20467;-51
2021/01/15 02:34:34;;;;;;;24.30;18.23;;;8.10;68.70;;;;;;5075438;28;20043;-51
2021/01/15 02:37:12;;;;;;;25.63;18.73;;;8.10;67.60;;;;;;5056965;28;20044;-55
2021/01/15 02:39:59;;;;;;;24.77;18.13;;;8.10;67.40;;;;;;5072488;28;20056;-55
2021/01/15 02:42:26;;;;;;;29.60;21.27;;;8.20;66.90;;;;;;5030395;28;20479;-56
2021/01/15 02:44:53;;;;;;;29.37;22.17;;;8.20;67.60;;;;;;5059864;28;20102;-54
2021/01/15 02:47:24;;;;;;;36.53;26.13;;;8.20;68.00;;;;;;5065185;28;20090;-54
2021/01/15 02:49:51;;;;;;;31.33;24.93;;;8.20;67.90;;;;;;5074414;28;20084;-56
2021/01/15 02:52:18;;;;;;;35.90;26.40;;;8.10;67.60;;;;;;5067730;28;20032;-56
2021/01/15 02:54:44;;;;;;;32.83;24.23;;;8.20;67.80;;;;;;5072864;28;20052;-55
2021/01/15 02:57:09;;;;;;;35.30;25.80;;;8.20;67.40;;;;;;5076987;28;20438;-55
2021/01/15 02:59:35;;;;;;;37.03;27.30;;;8.20;67.00;;;;;;5053393;28;20546;-55
2021/01/15 03:02:16;;;;;;;42.37;30.47;;;8.20;67.30;;;;;;5077024;28;20701;-52
2021/01/15 03:05:00;;;;;;;37.83;28.43;;;8.30;68.10;;;;;;5073682;28;20037;-60
2021/01/15 03:07:27;;;;;;;37.17;27.20;;;8.20;67.90;;;;;;5076092;28;20447;-56
2021/01/15 03:09:56;;;;;;;39.23;27.07;;;8.20;67.90;;;;;;5071627;28;20482;-52
2021/01/15 03:12:24;;;;;;;36.40;24.43;;;8.20;67.60;;;;;;5075343;28;20504;-54
2021/01/15 03:14:52;;;;;;;29.97;22.70;;;8.20;67.30;;;;;;5057818;28;20048;-55
2021/01/15 03:17:23;;;;;;;32.23;24.90;;;8.20;66.90;;;;;;5066688;28;20078;-55
2021/01/15 03:19:50;;;;;;;31.13;23.87;;;8.30;67.30;;;;;;5069990;28;20137;-55
2021/01/15 03:22:18;;;;;;;31.47;20.23;;;8.30;66.30;;;;;;5076448;28;20035;-54
2021/01/15 03:24:57;;;;;;;24.90;20.20;;;8.30;65.70;;;;;;5073456;28;20487;-56
2021/01/15 03:27:42;;;;;;;27.13;19.50;;;8.30;64.80;;;;;;5078681;28;20085;-51
2021/01/15 03:30:09;;;;;;;24.02;16.67;;;8.30;64.90;;;;;;5073146;28;20135;-53
2021/01/15 03:32:35;;;;;;;27.00;17.20;;;8.30;64.60;;;;;;5074252;28;20078;-55
2021/01/15 03:35:01;;;;;;;24.43;17.63;;;8.30;64.50;;;;;;5071763;28;20466;-56
2021/01/15 03:37:26;;;;;;;22.60;16.03;;;8.30;64.50;;;;;;5063628;28;20032;-56
2021/01/15 03:39:52;;;;;;;24.20;16.00;;;8.30;63.60;;;;;;5075443;28;20063;-56
2021/01/15 03:42:17;;;;;;;21.93;16.10;;;8.30;63.00;;;;;;5080908;28;20374;-54
2021/01/15 03:44:43;;;;;;;22.00;15.37;;;8.30;63.00;;;;;;5077088;28;20082;-54
2021/01/15 03:47:09;;;;;;;19.43;13.40;;;8.40;63.10;;;;;;5082372;28;20165;-56
2021/01/15 03:49:35;;;;;;;18.40;13.17;;;8.40;61.40;;;;;;5079542;28;20408;-51
2021/01/15 03:52:01;;;;;;;18.70;12.67;;;8.40;61.90;;;;;;5070923;28;20036;-51
2021/01/15 04:01:15;;;;;;;17.43;12.37;;;8.40;61.00;;;;;;5053389;28;20528;-51
2021/01/15 04:03:40;;;;;;;17.70;12.17;;;8.30;61.50;;;;;;5053835;28;20463;-55
2021/01/15 04:06:06;;;;;;;18.07;11.30;;;8.30;61.90;;;;;;5075908;28;20039;-54
2021/01/15 04:08:32;;;;;;;13.40;10.50;;;8.30;62.00;;;;;;5079751;28;20086;-51
2021/01/15 04:10:57;;;;;;;12.47;8.93;;;8.20;62.00;;;;;;5076423;28;20519;-54
2021/01/15 04:13:23;;;;;;;17.10;10.27;;;8.20;63.00;;;;;;5073712;28;20058;-55
2021/01/15 04:15:49;;;;;;;18.20;9.43;;;8.10;63.30;;;;;;5075663;28;20564;-54
2021/01/15 04:18:14;;;;;;;12.13;8.60;;;8.00;64.50;;;;;;5073854;28;20125;-52
2021/01/15 04:20:40;;;;;;;13.37;8.67;;;8.10;64.90;;;;;;5082374;28;20390;-55
2021/01/15 04:23:07;;;;;;;13.87;8.17;;;8.10;65.20;;;;;;5072894;28;20093;-52
2021/01/15 04:25:33;;;;;;;13.77;8.50;;;8.10;65.30;;;;;;5044914;28;20043;-51
2021/01/15 04:28:02;;;;;;;11.67;7.90;;;8.10;65.60;;;;;;5054968;28;20052;-51
2021/01/15 04:30:28;;;;;;;10.80;6.50;;;8.20;66.10;;;;;;5079409;28;20036;-56
2021/01/15 04:32:54;;;;;;;9.83;6.53;;;8.00;66.40;;;;;;5076494;28;20025;-54
2021/01/15 04:35:19;;;;;;;11.33;6.40;;;8.10;66.60;;;;;;5083913;28;20677;-56
2021/01/15 04:37:47;;;;;;;10.90;6.13;;;8.10;67.30;;;;;;5077751;28;20055;-51
2021/01/15 04:40:13;;;;;;;6.13;4.03;;;8.10;67.30;;;;;;5080238;28;20047;-55
2021/01/15 04:42:44;;;;;;;10.20;5.10;;;8.10;68.00;;;;;;5076006;28;20032;-56
2021/01/15 04:45:17;;;;;;;6.00;3.63;;;8.00;68.80;;;;;;5081889;28;20074;-54
2021/01/15 04:47:47;;;;;;;6.67;4.03;;;8.10;69.30;;;;;;5064931;28;20123;-57
2021/01/15 04:50:15;;;;;;;7.37;3.63;;;8.20;69.00;;;;;;5076263;28;20490;-55
2021/01/15 04:52:46;;;;;;;7.33;3.97;;;8.20;69.10;;;;;;5075673;28;20096;-56
2021/01/15 04:55:23;;;;;;;4.63;2.50;;;8.20;69.60;;;;;;5077901;28;20043;-53
2021/01/15 04:57:53;;;;;;;8.73;3.00;;;8.10;69.90;;;;;;5051478;28;20056;-55
2021/01/15 05:00:21;;;;;;;8.50;3.37;;;8.10;69.90;;;;;;5077273;28;20521;-54
2021/01/15 05:02:48;;;;;;;3.97;2.67;;;8.10;70.10;;;;;;5078820;28;20040;-53
2021/01/15 05:05:27;;;;;;;4.13;2.90;;;8.10;70.10;;;;;;5075922;28;20044;-53
2021/01/15 05:08:09;;;;;;;5.73;2.77;;;8.10;70.70;;;;;;5066431;28;20429;-55
2021/01/15 05:10:40;;;;;;;5.63;3.10;;;8.20;70.20;;;;;;5074571;28;20024;-55
2021/01/15 05:13:08;;;;;;;4.57;2.47;;;8.20;70.20;;;;;;5081345;28;20040;-51
2021/01/15 05:15:36;;;;;;;6.90;2.57;;;8.20;69.90;;;;;;5057837;28;20039;-56
2021/01/15 05:18:04;;;;;;;6.17;2.80;;;8.20;69.70;;;;;;5069527;28;20077;-52
2021/01/15 05:20:31;;;;;;;5.07;2.70;;;8.20;69.30;;;;;;5079334;28;20048;-53
2021/01/15 05:23:00;;;;;;;6.33;2.80;;;8.20;69.10;;;;;;5069998;28;20489;-51
2021/01/15 05:25:27;;;;;;;4.80;2.77;;;8.20;69.30;;;;;;5074991;28;20036;-55
2021/01/15 05:27:53;;;;;;;7.03;2.90;;;8.20;68.80;;;;;;5079889;28;20083;-54
2021/01/15 05:30:23;;;;;;;6.67;2.73;;;8.20;68.50;;;;;;5064207;28;20073;-55
2021/01/15 05:32:54;;;;;;;5.70;2.93;;;8.30;69.50;;;;;;5069373;28;20047;-56
2021/01/15 05:35:40;;;;;;;4.93;2.60;;;8.30;67.90;;;;;;5075330;28;20449;-52
2021/01/15 05:38:05;;;;;;;6.00;2.73;;;8.30;67.90;;;;;;5077608;28;20032;-52
2021/01/15 05:40:49;;;;;;;4.60;2.30;;;8.20;67.50;;;;;;5073639;28;20073;-55
2021/01/15 05:43:24;;;;;;;4.60;2.50;;;8.20;67.10;;;;;;5076912;28;20513;-55
2021/01/15 05:46:16;;;;;;;7.57;2.73;;;8.20;66.50;;;;;;5069937;28;20395;-53
2021/01/15 05:48:53;;;;;;;7.17;2.70;;;8.20;65.30;;;;;;5079891;28;20032;-53
2021/01/15 05:51:30;;;;;;;4.23;2.37;;;8.20;66.00;;;;;;5043474;28;20043;-52
2021/01/15 05:53:56;;;;;;;3.00;2.67;;;8.20;64.70;;;;;;5079213;28;20038;-55
2021/01/15 05:56:24;;;;;;;6.57;2.40;;;8.20;65.20;;;;;;5060414;28;20052;-52
2021/01/15 05:59:08;;;;;;;5.80;2.60;;;8.20;64.80;;;;;;5068055;28;20115;-55
2021/01/15 06:01:47;;;;;;;5.45;2.30;;;8.20;61.50;;;;;;5075040;28;20048;-54
2021/01/15 06:04:15;;;;;;;4.93;2.20;;;8.20;63.00;;;;;;5073127;28;20117;-55
2021/01/15 06:06:42;;;;;;;5.27;2.50;;;8.10;63.70;;;;;;5073667;28;20082;-56
2021/01/15 06:09:10;;;;;;;4.33;2.27;;;8.20;63.60;;;;;;5081871;28;20088;-53
2021/01/15 06:11:38;;;;;;;5.40;2.57;;;8.20;63.20;;;;;;5073391;28;20504;-53
2021/01/15 06:14:19;;;;;;;2.53;2.27;;;8.20;62.70;;;;;;5068138;28;20508;-55
2021/01/15 06:16:45;;;;;;;7.13;2.47;;;8.30;62.20;;;;;;5047097;28;20039;-56
2021/01/15 06:19:11;;;;;;;6.30;2.40;;;8.20;62.60;;;;;;5080792;28;20402;-51
2021/01/15 06:21:37;;;;;;;4.83;2.93;;;8.20;61.90;;;;;;5076236;28;20084;-54
2021/01/15 06:24:07;;;;;;;6.20;2.37;;;8.20;61.40;;;;;;5082368;28;20059;-52
2021/01/15 06:26:38;;;;;;;6.50;2.30;;;8.20;61.30;;;;;;5075980;28;20040;-55
2021/01/15 06:29:12;;;;;;;4.87;2.47;;;8.20;61.00;;;;;;5078636;28;20044;-56
2021/01/15 06:31:49;;;;;;;3.93;2.23;;;8.20;60.80;;;;;;5059243;28;20181;-56
2021/01/15 06:34:19;;;;;;;5.57;2.63;;;8.20;60.20;;;;;;5062718;28;20040;-55
2021/01/15 06:36:52;;;;;;;7.87;2.47;;;8.20;61.30;;;;;;5073895;28;20123;-57
2021/01/15 06:39:19;;;;;;;4.33;2.43;;;8.20;59.90;;;;;;5063753;28;20086;-57
2021/01/15 06:41:45;;;;;;;6.17;2.40;;;8.20;60.60;;;;;;5077033;28;20047;-56
2021/01/15 06:44:17;;;;;;;6.10;2.57;;;8.10;60.00;;;;;;5074503;28;20086;-53
2021/01/15 06:46:44;;;;;;;6.30;2.70;;;8.30;60.00;;;;;;5053200;28;20070;-56
2021/01/15 06:49:15;;;;;;;8.50;2.17;;;8.30;59.80;;;;;;5064046;28;20044;-55
2021/01/15 06:51:54;;;;;;;7.87;2.63;;;8.20;59.40;;;;;;5041465;28;20402;-54
2021/01/15 06:54:45;;;;;;;4.50;2.50;;;8.30;59.10;;;;;;5041219;28;20044;-57
2021/01/15 06:57:14;;;;;;;5.80;2.40;;;8.30;58.20;;;;;;5078327;28;20028;-52
2021/01/15 06:59:47;;;;;;;7.07;2.37;;;8.20;59.20;;;;;;5073605;28;20068;-55
2021/01/15 07:02:24;;;;;;;5.53;2.60;;;8.20;58.50;;;;;;5076936;28;20033;-54
2021/01/15 07:05:00;;;;;;;4.93;2.27;;;8.20;57.90;;;;;;5049085;28;20040;-55
2021/01/15 07:07:32;;;;;;;7.17;2.77;;;8.30;58.90;;;;;;5075884;28;20421;-54
2021/01/15 07:10:03;;;;;;;5.13;2.50;;;8.20;58.50;;;;;;5069539;28;20036;-55
2021/01/15 07:12:41;;;;;;;8.07;2.40;;;8.30;59.00;;;;;;5076000;28;20036;-56
2021/01/15 07:15:17;;;;;;;6.67;2.33;;;8.30;58.40;;;;;;5069259;28;20124;-54
2021/01/15 07:17:47;;;;;;;6.97;2.40;;;8.30;58.10;;;;;;5049931;28;20555;-56
2021/01/15 07:20:16;;;;;;;8.63;2.50;;;8.30;58.00;;;;;;5080498;28;20105;-55
2021/01/15 07:22:48;;;;;;;6.33;2.33;;;8.30;58.50;;;;;;5081438;28;20037;-56
2021/01/15 07:25:15;;;;;;;2.80;2.00;;;8.30;58.90;;;;;;5077407;28;20573;-58
2021/01/15 07:27:41;;;;;;;8.90;2.20;;;8.30;57.90;;;;;;5079206;28;20040;-51
2021/01/15 07:30:30;;;;;;;6.70;2.30;;;8.20;58.30;;;;;;5073236;28;20404;-55
2021/01/15 07:32:57;;;;;;;7.73;2.40;;;8.30;57.70;;;;;;5027565;28;20024;-56
2021/01/15 07:35:27;;;;;;;4.47;2.20;;;8.30;58.80;;;;;;5071818;28;20032;-53
2021/01/15 07:38:16;;;;;;;7.10;3.10;;;8.40;58.50;;;;;;5079101;28;20043;-56
2021/01/15 07:40:42;;;;;;;10.20;3.30;;;8.40;56.80;;;;;;5045343;28;20113;-56
2021/01/15 07:43:35;;;;;;;9.27;2.70;;;8.40;58.30;;;;;;5068566;28;20155;-54
2021/01/15 07:46:02;;;;;;;5.87;2.80;;;8.40;56.80;;;;;;5023965;28;20048;-56
2021/01/15 07:48:28;;;;;;;7.80;2.83;;;8.40;57.70;;;;;;5080348;28;20044;-53
2021/01/15 07:50:55;;;;;;;9.70;3.20;;;8.40;57.60;;;;;;5080184;28;20040;-55
2021/01/15 07:53:44;;;;;;;9.57;3.10;;;8.40;57.60;;;;;;5083098;28;20131;-55
2021/01/15 07:56:10;;;;;;;9.83;2.90;;;8.40;56.30;;;;;;5080359;28;20032;-53
2021/01/15 07:58:37;;;;;;;3.27;2.00;;;8.40;57.20;;;;;;5079330;28;20596;-55
2021/01/15 08:01:13;;;;;;;7.97;3.33;;;8.30;56.70;;;;;;5077715;28;20048;-55
2021/01/15 08:03:52;;;;;;;7.97;3.00;;;8.40;57.00;;;;;;5066240;28;20047;-57
2021/01/15 08:06:19;;;;;;;8.23;2.67;;;8.40;57.80;;;;;;5076595;28;20040;-55
2021/01/15 08:09:08;;;;;;;6.27;2.57;;;8.40;57.60;;;;;;5079663;28;20051;-57
2021/01/15 08:11:36;;;;;;;5.93;3.17;;;8.40;56.40;;;;;;5075949;28;20035;-55
2021/01/15 08:14:10;;;;;;;7.00;2.73;;;8.40;56.80;;;;;;5079873;28;20494;-52
2021/01/15 08:16:46;;;;;;;6.13;2.47;;;8.50;57.10;;;;;;5074266;28;20047;-53
2021/01/15 08:19:15;;;;;;;13.20;2.47;;;8.50;56.60;;;;;;5078084;28;20041;-56
2021/01/15 08:21:42;;;;;;;8.97;3.50;;;8.50;56.90;;;;;;5065718;28;20238;-56
2021/01/15 08:24:28;;;;;;;9.60;3.23;;;8.50;57.30;;;;;;5070784;28;20036;-53
2021/01/15 08:26:57;;;;;;;8.60;2.80;;;8.60;56.00;;;;;;4991034;28;20037;-54
2021/01/15 08:29:25;;;;;;;7.07;2.47;;;8.50;56.90;;;;;;5014827;28;20061;-56
2021/01/15 08:31:56;;;;;;;11.67;3.13;;;8.50;56.60;;;;;;4983153;28;20093;-55
2021/01/15 08:34:22;;;;;;;7.63;3.07;;;8.60;56.20;;;;;;4991493;28;20054;-55
2021/01/15 08:36:54;;;;;;;4.37;2.53;;;8.50;56.50;;;;;;5011144;28;20034;-56
2021/01/15 08:39:20;;;;;;;5.67;2.80;;;8.60;56.50;;;;;;5015156;28;20046;-56
2021/01/15 08:41:53;;;;;;;3.40;2.30;;;8.60;56.50;;;;;;5011254;28;20052;-55
2021/01/15 08:44:23;;;;;;;8.07;3.20;;;8.60;56.00;;;;;;5015326;28;20499;-54
2021/01/15 08:46:53;;;;;;;5.13;2.87;;;8.60;56.40;;;;;;5011488;28;20631;-54
2021/01/15 08:49:19;;;;;;;6.13;2.63;;;8.60;56.40;;;;;;4992460;28;20062;-56
2021/01/15 08:51:49;;;;;;;4.80;2.53;;;8.60;55.70;;;;;;5002570;28;20033;-59
2021/01/15 08:54:16;;;;;;;6.93;3.03;;;8.70;56.20;;;;;;5012648;28;20220;-58
2021/01/15 08:56:44;;;;;;;6.37;3.17;;;8.70;56.20;;;;;;5018151;28;20667;-55
2021/01/15 08:59:10;;;;;;;8.00;2.93;;;8.70;56.20;;;;;;5075065;28;20161;-55
2021/01/15 09:01:41;;;;;;;7.37;2.80;;;8.70;55.80;;;;;;5056132;28;20036;-57
2021/01/15 09:04:10;;;;;;;14.80;3.67;;;8.80;56.40;;;;;;5073146;28;20048;-55
2021/01/15 09:06:37;;;;;;;7.20;3.17;;;8.80;55.70;;;;;;5078057;28;20032;-54
2021/01/15 09:09:05;;;;;;;6.70;3.37;;;8.90;55.80;;;;;;5072426;28;20035;-56
2021/01/15 09:11:34;;;;;;;10.97;3.23;;;8.90;55.70;;;;;;5077546;28;20036;-54
2021/01/15 09:14:00;;;;;;;6.50;3.13;;;8.80;54.10;;;;;;5073782;28;20480;-55
2021/01/15 09:16:28;;;;;;;10.90;4.10;;;8.90;56.20;;;;;;5066775;28;20536;-56
2021/01/15 09:18:56;;;;;;;6.10;3.70;;;8.90;56.30;;;;;;5076256;28;20048;-57
2021/01/15 09:21:22;;;;;;;11.33;3.90;;;8.90;55.10;;;;;;5079194;28;20127;-56
2021/01/15 09:23:48;;;;;;;9.97;3.23;;;8.90;55.70;;;;;;5074217;28;20032;-55
2021/01/15 09:26:18;;;;;;;10.10;3.57;;;8.90;56.00;;;;;;5081411;28;20040;-53
2021/01/15 09:28:44;;;;;;;7.23;3.60;;;9.00;55.40;;;;;;5076856;28;21461;-55
2021/01/15 09:31:10;;;;;;;7.80;3.37;;;9.00;55.20;;;;;;5079951;28;20568;-54
2021/01/15 09:33:46;;;;;;;9.77;3.03;;;9.10;55.70;;;;;;5076767;28;20043;-57
2021/01/15 09:36:18;;;;;;;10.70;3.53;;;9.10;55.20;;;;;;5080487;28;20036;-56
2021/01/15 09:38:44;;;;;;;8.23;3.63;;;9.20;55.20;;;;;;5078804;28;20032;-57
2021/01/15 09:41:10;;;;;;;5.73;4.60;;;9.20;55.40;;;;;;5076335;28;20036;-54
2021/01/15 09:43:35;;;;;;;6.73;4.47;;;9.10;54.80;;;;;;5076494;28;20039;-56
2021/01/15 09:46:03;;;;;;;7.57;3.90;;;9.20;55.50;;;;;;5076023;28;20047;-56
2021/01/15 09:48:29;;;;;;;9.73;3.63;;;9.30;55.40;;;;;;5078257;28;20032;-52
2021/01/15 09:50:55;;;;;;;5.60;2.90;;;9.30;54.80;;;;;;5075249;28;20530;-54
2021/01/15 09:53:20;;;;;;;7.67;3.17;;;9.30;54.50;;;;;;5081716;28;20036;-54
2021/01/15 09:55:46;;;;;;;7.13;2.83;;;9.30;54.60;;;;;;5076827;28;20036;-54
2021/01/15 09:58:11;;;;;;;6.50;3.30;;;9.30;54.80;;;;;;5076600;28;20398;-52
2021/01/15 10:00:39;;;;;;;7.63;3.20;;;9.20;54.40;;;;;;5074739;28;20043;-53
2021/01/15 10:03:05;;;;;;;6.47;2.67;;;9.30;54.80;;;;;;5074037;28;20569;-52
2021/01/15 10:05:31;;;;;;;7.20;2.90;;;9.20;54.10;;;;;;5071460;28;20119;-56
2021/01/15 10:07:56;;;;;;;5.30;2.83;;;9.30;54.60;;;;;;5078651;28;20040;-55
2021/01/15 10:10:22;;;;;;;5.57;3.10;;;9.40;54.40;;;;;;5072151;28;20118;-55
2021/01/15 10:12:48;;;;;;;6.93;3.10;;;9.50;54.00;;;;;;5080025;28;20543;-53
2021/01/15 10:15:14;;;;;;;6.17;3.23;;;9.50;53.90;;;;;;5074482;28;20040;-54
2021/01/15 10:17:46;;;;;;;11.30;3.20;;;9.40;53.20;;;;;;5081404;28;20394;-53
2021/01/15 10:20:13;;;;;;;5.87;2.80;;;9.50;53.50;;;;;;5076571;28;20048;-53
2021/01/15 10:22:38;;;;;;;6.87;3.17;;;9.40;53.90;;;;;;5072060;28;20343;-55
2021/01/15 10:25:05;;;;;;;7.73;3.07;;;9.50;54.40;;;;;;5062759;28;20039;-53
2021/01/15 10:27:31;;;;;;;9.87;3.50;;;9.50;53.90;;;;;;5070197;28;20039;-55
2021/01/15 10:29:56;;;;;;;3.67;2.67;;;9.50;56.40;;;;;;5079612;28;20109;-54
2021/01/15 10:32:22;;;;;;;5.27;3.07;;;9.70;53.40;;;;;;5071429;28;20047;-54
2021/01/15 10:34:47;;;;;;;5.27;3.10;;;9.70;53.50;;;;;;5076829;28;20048;-55
2021/01/15 10:37:13;;;;;;;6.93;3.50;;;9.80;57.40;;;;;;5074148;28;20122;-56
2021/01/15 10:39:40;;;;;;;7.27;2.83;;;9.70;53.50;;;;;;5077313;28;20036;-54
2021/01/15 10:42:05;;;;;;;11.10;3.60;;;9.70;53.50;;;;;;5075830;28;20107;-51
2021/01/15 10:44:31;;;;;;;8.47;3.17;;;9.70;54.40;;;;;;5075060;28;20604;-55
2021/01/15 10:46:57;;;;;;;5.47;3.30;;;9.60;59.30;;;;;;5075125;28;20055;-55
2021/01/15 10:49:23;;;;;;;9.23;3.17;;;9.90;70.80;;;;;;5077183;28;20062;-53
2021/01/15 10:51:52;;;;;;;9.77;3.40;;;9.80;66.20;;;;;;5076013;28;20036;-54
2021/01/15 10:54:18;;;;;;;7.80;3.57;;;9.90;67.00;;;;;;5078875;28;20209;-54
2021/01/15 10:56:45;;;;;;;6.33;2.80;;;9.90;62.90;;;;;;5074309;28;20044;-52
2021/01/15 10:59:12;;;;;;;7.70;4.20;;;9.90;66.40;;;;;;5076792;28;20035;-54
2021/01/15 11:01:37;;;;;;;4.47;3.40;;;10.00;53.80;;;;;;5076400;28;20051;-55
2021/01/15 11:04:06;;;;;;;6.73;3.30;;;9.90;53.60;;;;;;5074647;28;20048;-56
2021/01/15 11:06:31;;;;;;;3.47;2.47;;;9.90;53.20;;;;;;5080426;28;20047;-52
2021/01/15 11:08:57;;;;;;;4.30;2.57;;;9.80;52.70;;;;;;5076187;28;20052;-53
2021/01/15 11:11:23;;;;;;;7.50;3.20;;;9.70;52.50;;;;;;5077172;28;20044;-54
2021/01/15 11:13:48;;;;;;;3.77;2.90;;;9.80;53.00;;;;;;5076273;28;20035;-54
2021/01/15 11:16:15;;;;;;;4.20;3.40;;;9.90;53.40;;;;;;5059480;28;20064;-55
2021/01/15 11:18:41;;;;;;;6.63;2.83;;;9.80;53.30;;;;;;5073332;28;20112;-54
2021/01/15 11:21:08;;;;;;;6.90;3.20;;;9.70;53.10;;;;;;5078415;28;20036;-54
2021/01/15 11:23:34;;;;;;;6.17;2.93;;;9.70;53.40;;;;;;5071706;28;20043;-54
2021/01/15 11:26:01;;;;;;;3.60;3.00;;;9.60;53.40;;;;;;5077124;28;20040;-55
2021/01/15 11:28:27;;;;;;;6.60;3.37;;;9.80;53.90;;;;;;5071259;28;20036;-56
2021/01/15 11:30:53;;;;;;;4.67;2.70;;;9.80;53.30;;;;;;5076743;28;20051;-56
2021/01/15 11:33:19;;;;;;;7.20;2.70;;;9.80;53.90;;;;;;5072249;28;20032;-56
2021/01/15 11:35:44;;;;;;;6.00;2.90;;;9.80;52.90;;;;;;5078420;28;20036;-53
2021/01/15 11:38:10;;;;;;;5.77;3.33;;;9.90;53.50;;;;;;5077007;28;20036;-55
2021/01/15 11:40:36;;;;;;;4.13;2.83;;;10.00;53.40;;;;;;5072690;28;20051;-55
2021/01/15 11:43:02;;;;;;;6.40;2.73;;;9.90;53.10;;;;;;5074515;28;20121;-53
2021/01/15 11:45:27;;;;;;;6.70;2.90;;;9.90;52.90;;;;;;5074041;28;20080;-56
2021/01/15 11:47:54;;;;;;;4.67;2.53;;;9.90;52.80;;;;;;5073907;28;20075;-53
2021/01/15 11:50:21;;;;;;;5.07;2.73;;;9.90;53.80;;;;;;5072581;28;20540;-53
2021/01/15 11:52:47;;;;;;;5.60;3.07;;;9.90;53.40;;;;;;5075892;28;20489;-54
2021/01/15 11:55:14;;;;;;;5.73;2.93;;;9.90;52.80;;;;;;5071910;28;20093;-56
2021/01/15 11:57:40;;;;;;;5.90;3.17;;;10.00;53.50;;;;;;5076575;28;20039;-56
2021/01/15 12:00:07;;;;;;;6.27;3.07;;;10.10;53.10;;;;;;5052698;28;20677;-56
2021/01/15 12:02:33;;;;;;;8.03;2.40;;;9.90;53.40;;;;;;5075155;28;20462;-56
2021/01/15 12:04:59;;;;;;;6.20;3.40;;;9.90;53.50;;;;;;5076029;28;20048;-56
2021/01/15 12:07:29;;;;;;;5.33;2.87;;;9.90;53.80;;;;;;5065042;28;20505;-57
2021/01/15 12:09:55;;;;;;;3.77;2.40;;;9.80;53.80;;;;;;5074867;28;20520;-57
2021/01/15 12:12:21;;;;;;;4.20;2.50;;;9.80;52.60;;;;;;5077751;28;20046;-57
2021/01/15 12:14:47;;;;;;;5.87;2.50;;;9.80;53.10;;;;;;5081882;28;20032;-56
2021/01/15 12:17:12;;;;;;;5.53;2.83;;;9.80;53.20;;;;;;5066365;28;20118;-59
2021/01/15 12:19:38;;;;;;;4.40;2.80;;;9.70;52.60;;;;;;5076837;28;20056;-61
2021/01/15 12:22:03;;;;;;;6.77;3.37;;;9.90;53.30;;;;;;5075299;28;20440;-61
2021/01/15 12:24:31;;;;;;;7.30;3.67;;;10.00;53.20;;;;;;5062892;28;20047;-61
2021/01/15 12:26:59;;;;;;;7.17;3.80;;;10.10;53.10;;;;;;5071353;28;20110;-61
2021/01/15 12:29:26;;;;;;;7.63;3.30;;;10.20;53.30;;;;;;5061541;28;20063;-62
2021/01/15 12:31:56;;;;;;;4.97;2.60;;;10.20;53.20;;;;;;5076514;28;20035;-61
2021/01/15 12:34:22;;;;;;;8.03;3.43;;;9.90;52.40;;;;;;5082246;28;20040;-63
2021/01/15 12:36:49;;;;;;;7.83;3.57;;;9.90;53.30;;;;;;5077843;28;20062;-62
2021/01/15 12:39:15;;;;;;;6.03;3.07;;;9.90;53.70;;;;;;5080813;28;20032;-61
2021/01/15 12:41:40;;;;;;;6.63;2.40;;;9.80;53.70;;;;;;5077533;28;20055;-60
2021/01/15 12:44:06;;;;;;;5.33;2.63;;;9.80;53.70;;;;;;5081040;28;20036;-60
2021/01/15 12:46:31;;;;;;;7.87;3.53;;;9.80;53.60;;;;;;5069207;28;20044;-56
2021/01/15 12:48:57;;;;;;;7.33;3.43;;;9.80;53.60;;;;;;5080087;28;20206;-55
2021/01/15 12:51:23;;;;;;;4.43;2.93;;;9.80;54.00;;;;;;5068861;28;20040;-55
2021/01/15 12:53:48;;;;;;;5.20;2.87;;;9.80;54.00;;;;;;5080244;28;20517;-56
2021/01/15 12:56:17;;;;;;;8.70;2.97;;;9.80;53.90;;;;;;5075525;28;20431;-54
2021/01/15 12:58:43;;;;;;;8.83;2.90;;;9.80;53.90;;;;;;5075275;28;20040;-52
2021/01/15 13:01:09;;;;;;;7.03;2.77;;;9.90;54.20;;;;;;5065546;28;20051;-55
2021/01/15 13:03:35;;;;;;;5.00;3.00;;;9.90;54.60;;;;;;5058040;28;20032;-55
2021/01/15 13:06:00;;;;;;;6.87;3.13;;;9.90;53.90;;;;;;5079015;28;20122;-56